Tan-shui, Taiwan
Current Conditions -  °F | °C
As of 8:00 PM on Thursday 27 Nov 2014 (Local Time) from RCSS Reporting Station
Broken Clouds Broken Clouds  
Wind Chill: 73°   Ceiling: 8000
Heat Index: 73°   Visibility: 6mi
Dew Point: 68°   Wind: 10mph
Humidity: 83%   Direction: 100°E
Pressure: 29.97"   Gusts: NA
Location:  25.17°N, 121.43°E
Report Text: RCSS 271200Z 10009KT 9999 FEW006 BKN080 23/20 Q1015 NOSIGRMK A2999
Loading
Personal Weather Stations






























Interactive Weather Map New forecast layout! Learn more

10-Day Weather Forecast

Advertisements
Track Severe Weather on mobile